Terminal Aerodrome Forecast
Issued by NWS Northern Indiana

Home | Current Version | Previous Version | Text Only | Print | Product List | Glossary On
Versions: 1 2 3 4 5 6 7 8 9 10 11 12 13 14 15 16
000
FTUS43 KIWX 300524
TAFFWA
TAF
KFWA 300524Z 3006/3106 18004KT 6SM BR VCSH SCT035 OVC080
      TEMPO 3006/3008 4SM -SHRA OVC035
     FM301000 VRB03KT 4SM BR OVC050
     FM301400 22007KT P6SM BKN040
     FM310100 22004KT P6SM SCT040=

USA.gov is the U.S. government's official web portal to all federal, state and local government web resources and services.